sensor_id;sensor_type;location;lat;lon;timestamp;temperature;humidity
45060;DHT22;30799;49.060;9.312;2022-12-24T00:01:32;20.30;64.80
45060;DHT22;30799;49.060;9.312;2022-12-24T00:03:58;20.30;64.70
45060;DHT22;30799;49.060;9.312;2022-12-24T00:06:25;20.30;64.80
45060;DHT22;30799;49.060;9.312;2022-12-24T00:08:51;20.30;64.60
45060;DHT22;30799;49.060;9.312;2022-12-24T00:11:18;20.30;64.60
45060;DHT22;30799;49.060;9.312;2022-12-24T00:13:45;20.30;64.70
45060;DHT22;30799;49.060;9.312;2022-12-24T00:16:12;20.30;64.60
45060;DHT22;30799;49.060;9.312;2022-12-24T00:18:39;20.20;64.50
45060;DHT22;30799;49.060;9.312;2022-12-24T00:21:12;20.20;64.50
45060;DHT22;30799;49.060;9.312;2022-12-24T00:23:39;20.20;64.50
45060;DHT22;30799;49.060;9.312;2022-12-24T00:26:06;20.20;64.50
45060;DHT22;30799;49.060;9.312;2022-12-24T00:28:32;20.20;64.40
45060;DHT22;30799;49.060;9.312;2022-12-24T00:30:59;20.20;64.40
45060;DHT22;30799;49.060;9.312;2022-12-24T00:33:26;20.20;64.30
45060;DHT22;30799;49.060;9.312;2022-12-24T00:35:52;20.20;64.30
45060;DHT22;30799;49.060;9.312;2022-12-24T00:38:19;20.20;64.20
45060;DHT22;30799;49.060;9.312;2022-12-24T00:40:45;20.20;64.30
45060;DHT22;30799;49.060;9.312;2022-12-24T00:43:12;20.20;64.30
45060;DHT22;30799;49.060;9.312;2022-12-24T00:45:39;20.20;64.20
45060;DHT22;30799;49.060;9.312;2022-12-24T00:48:05;20.20;64.20
45060;DHT22;30799;49.060;9.312;2022-12-24T00:50:32;20.20;64.30
45060;DHT22;30799;49.060;9.312;2022-12-24T00:52:58;20.20;64.20
45060;DHT22;30799;49.060;9.312;2022-12-24T00:55:25;20.20;64.20
45060;DHT22;30799;49.060;9.312;2022-12-24T00:57:52;20.20;64.20
45060;DHT22;30799;49.060;9.312;2022-12-24T01:00:18;20.20;64.10
45060;DHT22;30799;49.060;9.312;2022-12-24T01:02:45;20.20;64.20
45060;DHT22;30799;49.060;9.312;2022-12-24T01:05:12;20.20;64.20
45060;DHT22;30799;49.060;9.312;2022-12-24T01:07:39;20.20;64.20
45060;DHT22;30799;49.060;9.312;2022-12-24T01:10:06;20.20;64.20
45060;DHT22;30799;49.060;9.312;2022-12-24T01:12:33;20.20;64.20
45060;DHT22;30799;49.060;9.312;2022-12-24T01:15:00;20.20;64.10
45060;DHT22;30799;49.060;9.312;2022-12-24T01:17:27;20.20;64.10
45060;DHT22;30799;49.060;9.312;2022-12-24T01:19:53;20.20;64.10
45060;DHT22;30799;49.060;9.312;2022-12-24T01:22:20;20.20;64.90
45060;DHT22;30799;49.060;9.312;2022-12-24T01:24:47;20.20;64.10
45060;DHT22;30799;49.060;9.312;2022-12-24T01:27:13;20.20;64.10
45060;DHT22;30799;49.060;9.312;2022-12-24T01:29:40;20.20;64.10
45060;DHT22;30799;49.060;9.312;2022-12-24T01:32:07;20.10;63.90
45060;DHT22;30799;49.060;9.312;2022-12-24T01:34:33;20.10;63.90
45060;DHT22;30799;49.060;9.312;2022-12-24T01:37:00;20.10;63.90
45060;DHT22;30799;49.060;9.312;2022-12-24T01:39:27;20.10;63.90
45060;DHT22;30799;49.060;9.312;2022-12-24T01:41:54;20.10;63.90
45060;DHT22;30799;49.060;9.312;2022-12-24T01:44:41;20.10;63.90
45060;DHT22;30799;49.060;9.312;2022-12-24T01:47:16;20.10;63.80
45060;DHT22;30799;49.060;9.312;2022-12-24T01:49:48;20.10;63.80
45060;DHT22;30799;49.060;9.312;2022-12-24T01:52:27;20.10;63.90
45060;DHT22;30799;49.060;9.312;2022-12-24T01:55:02;20.10;63.90
45060;DHT22;30799;49.060;9.312;2022-12-24T01:57:37;20.10;63.80
45060;DHT22;30799;49.060;9.312;2022-12-24T02:00:08;20.10;63.80
45060;DHT22;30799;49.060;9.312;2022-12-24T02:02:38;20.10;63.80
45060;DHT22;30799;49.060;9.312;2022-12-24T02:05:17;20.10;63.70
45060;DHT22;30799;49.060;9.312;2022-12-24T02:07:48;20.10;63.70
45060;DHT22;30799;49.060;9.312;2022-12-24T02:10:15;20.10;63.80
45060;DHT22;30799;49.060;9.312;2022-12-24T02:12:43;20.10;63.70
45060;DHT22;30799;49.060;9.312;2022-12-24T02:15:12;20.10;63.70
45060;DHT22;30799;49.060;9.312;2022-12-24T02:21:16;20.10;63.70
45060;DHT22;30799;49.060;9.312;2022-12-24T02:23:52;20.10;63.70
45060;DHT22;30799;49.060;9.312;2022-12-24T02:26:40;20.10;63.80
45060;DHT22;30799;49.060;9.312;2022-12-24T02:32:22;20.10;63.70
45060;DHT22;30799;49.060;9.312;2022-12-24T02:35:03;20.10;63.70
45060;DHT22;30799;49.060;9.312;2022-12-24T02:37:41;20.10;63.70
45060;DHT22;30799;49.060;9.312;2022-12-24T02:40:33;20.10;63.70
45060;DHT22;30799;49.060;9.312;2022-12-24T02:43:02;20.10;63.60
45060;DHT22;30799;49.060;9.312;2022-12-24T02:45:31;20.10;63.70
45060;DHT22;30799;49.060;9.312;2022-12-24T02:48:00;20.00;63.50
45060;DHT22;30799;49.060;9.312;2022-12-24T02:50:27;20.10;63.60
45060;DHT22;30799;49.060;9.312;2022-12-24T02:52:54;20.00;63.60
45060;DHT22;30799;49.060;9.312;2022-12-24T03:03:15;20.00;63.60
45060;DHT22;30799;49.060;9.312;2022-12-24T03:05:48;20.00;63.50
45060;DHT22;30799;49.060;9.312;2022-12-24T03:10:51;20.00;63.50
45060;DHT22;30799;49.060;9.312;2022-12-24T03:13:20;20.00;63.50
45060;DHT22;30799;49.060;9.312;2022-12-24T03:15:48;20.00;63.50
45060;DHT22;30799;49.060;9.312;2022-12-24T03:18:19;20.00;63.50
45060;DHT22;30799;49.060;9.312;2022-12-24T03:21:09;20.00;63.50
45060;DHT22;30799;49.060;9.312;2022-12-24T03:23:36;20.00;63.60
45060;DHT22;30799;49.060;9.312;2022-12-24T03:26:06;20.00;63.60
45060;DHT22;30799;49.060;9.312;2022-12-24T03:28:37;20.00;63.60
45060;DHT22;30799;49.060;9.312;2022-12-24T03:31:05;20.00;63.60
45060;DHT22;30799;49.060;9.312;2022-12-24T03:33:33;20.00;63.60
45060;DHT22;30799;49.060;9.312;2022-12-24T03:36:00;20.00;63.60
45060;DHT22;30799;49.060;9.312;2022-12-24T03:38:27;20.00;63.60
45060;DHT22;30799;49.060;9.312;2022-12-24T03:40:54;20.00;63.60
45060;DHT22;30799;49.060;9.312;2022-12-24T03:43:21;20.00;63.50
45060;DHT22;30799;49.060;9.312;2022-12-24T03:45:47;20.00;63.60
45060;DHT22;30799;49.060;9.312;2022-12-24T03:48:14;20.00;63.60
45060;DHT22;30799;49.060;9.312;2022-12-24T03:50:40;20.00;63.50
45060;DHT22;30799;49.060;9.312;2022-12-24T03:53:07;20.00;63.60
45060;DHT22;30799;49.060;9.312;2022-12-24T03:55:34;20.00;63.60
45060;DHT22;30799;49.060;9.312;2022-12-24T03:58:00;20.00;63.60
45060;DHT22;30799;49.060;9.312;2022-12-24T04:00:27;20.00;63.50
45060;DHT22;30799;49.060;9.312;2022-12-24T04:02:54;20.00;63.50
45060;DHT22;30799;49.060;9.312;2022-12-24T04:05:20;20.00;63.60
45060;DHT22;30799;49.060;9.312;2022-12-24T04:07:47;20.00;63.60
45060;DHT22;30799;49.060;9.312;2022-12-24T04:10:15;20.00;63.60
45060;DHT22;30799;49.060;9.312;2022-12-24T04:12:42;20.00;63.60
45060;DHT22;30799;49.060;9.312;2022-12-24T04:15:09;20.00;63.60
45060;DHT22;30799;49.060;9.312;2022-12-24T04:17:36;20.00;63.60
45060;DHT22;30799;49.060;9.312;2022-12-24T04:20:04;20.00;63.60
45060;DHT22;30799;49.060;9.312;2022-12-24T04:22:30;20.00;63.70
45060;DHT22;30799;49.060;9.312;2022-12-24T04:24:58;20.00;63.70
45060;DHT22;30799;49.060;9.312;2022-12-24T04:27:24;20.00;63.60
45060;DHT22;30799;49.060;9.312;2022-12-24T04:29:56;20.00;63.80
45060;DHT22;30799;49.060;9.312;2022-12-24T04:32:25;20.00;63.60
45060;DHT22;30799;49.060;9.312;2022-12-24T04:34:52;20.00;63.70
45060;DHT22;30799;49.060;9.312;2022-12-24T04:37:18;20.00;63.60
45060;DHT22;30799;49.060;9.312;2022-12-24T04:39:45;20.00;63.60
45060;DHT22;30799;49.060;9.312;2022-12-24T04:42:12;20.00;63.60
45060;DHT22;30799;49.060;9.312;2022-12-24T04:44:38;20.00;63.60
45060;DHT22;30799;49.060;9.312;2022-12-24T04:47:05;20.00;63.60
45060;DHT22;30799;49.060;9.312;2022-12-24T04:49:32;20.00;63.60
45060;DHT22;30799;49.060;9.312;2022-12-24T04:51:58;20.00;63.60
45060;DHT22;30799;49.060;9.312;2022-12-24T04:54:25;20.00;63.60
45060;DHT22;30799;49.060;9.312;2022-12-24T04:56:52;20.00;63.60
45060;DHT22;30799;49.060;9.312;2022-12-24T04:59:19;20.00;63.50
45060;DHT22;30799;49.060;9.312;2022-12-24T05:01:45;20.00;63.60
45060;DHT22;30799;49.060;9.312;2022-12-24T05:04:12;20.00;63.60
45060;DHT22;30799;49.060;9.312;2022-12-24T05:06:39;20.00;63.50
45060;DHT22;30799;49.060;9.312;2022-12-24T05:09:05;20.00;63.60
45060;DHT22;30799;49.060;9.312;2022-12-24T05:11:32;20.00;63.60
45060;DHT22;30799;49.060;9.312;2022-12-24T05:13:59;20.00;63.60
45060;DHT22;30799;49.060;9.312;2022-12-24T05:16:25;20.00;63.50
45060;DHT22;30799;49.060;9.312;2022-12-24T05:18:52;20.00;63.60
45060;DHT22;30799;49.060;9.312;2022-12-24T05:21:21;20.00;63.50
45060;DHT22;30799;49.060;9.312;2022-12-24T05:23:49;19.90;63.50
45060;DHT22;30799;49.060;9.312;2022-12-24T05:26:36;19.90;63.60
45060;DHT22;30799;49.060;9.312;2022-12-24T05:29:05;19.90;63.40
45060;DHT22;30799;49.060;9.312;2022-12-24T05:31:32;19.90;63.50
45060;DHT22;30799;49.060;9.312;2022-12-24T05:34:00;19.90;63.50
45060;DHT22;30799;49.060;9.312;2022-12-24T05:36:27;20.00;63.50
45060;DHT22;30799;49.060;9.312;2022-12-24T05:38:54;19.90;63.60
45060;DHT22;30799;49.060;9.312;2022-12-24T05:41:20;20.00;63.50
45060;DHT22;30799;49.060;9.312;2022-12-24T05:43:47;19.90;63.60
45060;DHT22;30799;49.060;9.312;2022-12-24T05:46:16;19.90;63.50
45060;DHT22;30799;49.060;9.312;2022-12-24T05:48:45;19.90;63.50
45060;DHT22;30799;49.060;9.312;2022-12-24T05:51:13;19.90;63.40
45060;DHT22;30799;49.060;9.312;2022-12-24T05:53:40;19.90;63.40
45060;DHT22;30799;49.060;9.312;2022-12-24T05:56:09;19.90;63.40
45060;DHT22;30799;49.060;9.312;2022-12-24T05:58:37;19.90;63.50
45060;DHT22;30799;49.060;9.312;2022-12-24T06:01:05;19.90;63.50
45060;DHT22;30799;49.060;9.312;2022-12-24T06:03:33;19.90;63.40
45060;DHT22;30799;49.060;9.312;2022-12-24T06:06:04;19.90;63.40
45060;DHT22;30799;49.060;9.312;2022-12-24T06:08:32;19.90;63.40
45060;DHT22;30799;49.060;9.312;2022-12-24T06:11:01;19.90;63.40
45060;DHT22;30799;49.060;9.312;2022-12-24T06:13:29;19.90;63.30
45060;DHT22;30799;49.060;9.312;2022-12-24T06:15:58;19.90;63.40
45060;DHT22;30799;49.060;9.312;2022-12-24T06:18:25;19.90;63.30
45060;DHT22;30799;49.060;9.312;2022-12-24T06:20:53;19.90;63.30
45060;DHT22;30799;49.060;9.312;2022-12-24T06:23:20;19.90;63.30
45060;DHT22;30799;49.060;9.312;2022-12-24T06:25:47;19.90;63.90
45060;DHT22;30799;49.060;9.312;2022-12-24T06:28:14;19.90;63.30
45060;DHT22;30799;49.060;9.312;2022-12-24T06:30:46;19.90;63.30
45060;DHT22;30799;49.060;9.312;2022-12-24T06:33:13;19.90;63.20
45060;DHT22;30799;49.060;9.312;2022-12-24T06:35:40;19.90;63.20
45060;DHT22;30799;49.060;9.312;2022-12-24T06:38:07;19.90;63.20
45060;DHT22;30799;49.060;9.312;2022-12-24T06:40:33;19.90;63.20
45060;DHT22;30799;49.060;9.312;2022-12-24T06:43:00;19.90;63.30
45060;DHT22;30799;49.060;9.312;2022-12-24T06:45:27;19.90;63.20
45060;DHT22;30799;49.060;9.312;2022-12-24T06:47:53;19.90;63.20
45060;DHT22;30799;49.060;9.312;2022-12-24T06:50:20;19.90;63.30
45060;DHT22;30799;49.060;9.312;2022-12-24T06:52:46;19.90;63.10
45060;DHT22;30799;49.060;9.312;2022-12-24T06:55:13;19.90;63.20
45060;DHT22;30799;49.060;9.312;2022-12-24T06:57:40;19.90;63.30
45060;DHT22;30799;49.060;9.312;2022-12-24T07:00:09;19.90;63.20
45060;DHT22;30799;49.060;9.312;2022-12-24T07:02:43;19.90;63.30
45060;DHT22;30799;49.060;9.312;2022-12-24T07:05:11;19.80;63.20
45060;DHT22;30799;49.060;9.312;2022-12-24T07:07:40;19.90;63.10
45060;DHT22;30799;49.060;9.312;2022-12-24T07:10:10;19.90;63.10
45060;DHT22;30799;49.060;9.312;2022-12-24T07:12:37;19.90;63.10
45060;DHT22;30799;49.060;9.312;2022-12-24T07:15:04;19.80;63.10
45060;DHT22;30799;49.060;9.312;2022-12-24T07:17:31;19.90;63.10
45060;DHT22;30799;49.060;9.312;2022-12-24T07:19:58;19.90;63.20
45060;DHT22;30799;49.060;9.312;2022-12-24T07:22:24;19.90;63.20
45060;DHT22;30799;49.060;9.312;2022-12-24T07:24:51;19.90;63.10
45060;DHT22;30799;49.060;9.312;2022-12-24T07:27:18;19.90;63.00
45060;DHT22;30799;49.060;9.312;2022-12-24T07:29:44;19.90;63.10
45060;DHT22;30799;49.060;9.312;2022-12-24T07:32:11;19.90;63.10
45060;DHT22;30799;49.060;9.312;2022-12-24T07:34:38;19.90;63.10
45060;DHT22;30799;49.060;9.312;2022-12-24T07:37:06;19.90;63.10
45060;DHT22;30799;49.060;9.312;2022-12-24T07:39:33;19.90;63.10
45060;DHT22;30799;49.060;9.312;2022-12-24T07:41:59;19.90;63.10
45060;DHT22;30799;49.060;9.312;2022-12-24T07:44:26;19.90;63.20
45060;DHT22;30799;49.060;9.312;2022-12-24T07:46:53;19.90;63.10
45060;DHT22;30799;49.060;9.312;2022-12-24T07:49:19;19.90;63.20
45060;DHT22;30799;49.060;9.312;2022-12-24T07:51:46;19.90;63.10
45060;DHT22;30799;49.060;9.312;2022-12-24T07:54:13;19.80;63.10
45060;DHT22;30799;49.060;9.312;2022-12-24T07:56:41;19.90;63.20
45060;DHT22;30799;49.060;9.312;2022-12-24T07:59:12;19.90;63.10
45060;DHT22;30799;49.060;9.312;2022-12-24T08:01:40;19.80;63.10
45060;DHT22;30799;49.060;9.312;2022-12-24T08:04:07;19.80;63.10
45060;DHT22;30799;49.060;9.312;2022-12-24T08:06:34;19.80;62.90
45060;DHT22;30799;49.060;9.312;2022-12-24T08:09:00;19.80;63.00
45060;DHT22;30799;49.060;9.312;2022-12-24T08:11:27;19.80;63.10
45060;DHT22;30799;49.060;9.312;2022-12-24T08:13:54;19.80;63.00
45060;DHT22;30799;49.060;9.312;2022-12-24T08:16:20;19.80;63.00
45060;DHT22;30799;49.060;9.312;2022-12-24T08:18:47;19.80;63.00
45060;DHT22;30799;49.060;9.312;2022-12-24T08:21:14;19.80;63.00
45060;DHT22;30799;49.060;9.312;2022-12-24T08:23:41;19.80;63.10
45060;DHT22;30799;49.060;9.312;2022-12-24T08:26:09;19.80;63.10
45060;DHT22;30799;49.060;9.312;2022-12-24T08:28:36;19.80;63.00
45060;DHT22;30799;49.060;9.312;2022-12-24T08:31:04;19.80;62.90
45060;DHT22;30799;49.060;9.312;2022-12-24T08:33:30;19.80;62.90
45060;DHT22;30799;49.060;9.312;2022-12-24T08:35:59;19.80;62.90
45060;DHT22;30799;49.060;9.312;2022-12-24T08:38:26;19.80;62.90
45060;DHT22;30799;49.060;9.312;2022-12-24T08:40:53;19.80;63.00
45060;DHT22;30799;49.060;9.312;2022-12-24T08:43:21;19.80;63.00
45060;DHT22;30799;49.060;9.312;2022-12-24T08:45:48;19.80;63.00
45060;DHT22;30799;49.060;9.312;2022-12-24T08:48:16;19.80;63.00
45060;DHT22;30799;49.060;9.312;2022-12-24T08:50:42;19.80;62.90
45060;DHT22;30799;49.060;9.312;2022-12-24T08:53:10;19.80;63.00
45060;DHT22;30799;49.060;9.312;2022-12-24T08:55:37;19.80;63.00
45060;DHT22;30799;49.060;9.312;2022-12-24T08:58:03;19.80;62.90
45060;DHT22;30799;49.060;9.312;2022-12-24T09:00:30;19.80;62.90
45060;DHT22;30799;49.060;9.312;2022-12-24T09:02:57;19.80;62.90
45060;DHT22;30799;49.060;9.312;2022-12-24T09:05:24;19.80;62.80
45060;DHT22;30799;49.060;9.312;2022-12-24T09:07:51;19.80;62.90
45060;DHT22;30799;49.060;9.312;2022-12-24T09:10:18;19.80;62.90
45060;DHT22;30799;49.060;9.312;2022-12-24T09:12:45;19.80;62.90
45060;DHT22;30799;49.060;9.312;2022-12-24T09:15:12;19.80;62.80
45060;DHT22;30799;49.060;9.312;2022-12-24T09:17:40;19.80;62.80
45060;DHT22;30799;49.060;9.312;2022-12-24T09:20:07;19.80;62.80
45060;DHT22;30799;49.060;9.312;2022-12-24T09:22:36;19.80;62.90
45060;DHT22;30799;49.060;9.312;2022-12-24T09:25:03;19.80;62.90
45060;DHT22;30799;49.060;9.312;2022-12-24T09:27:31;19.80;62.80
45060;DHT22;30799;49.060;9.312;2022-12-24T09:29:58;19.80;62.80
45060;DHT22;30799;49.060;9.312;2022-12-24T09:32:25;19.80;62.80
45060;DHT22;30799;49.060;9.312;2022-12-24T09:34:52;19.80;62.80
45060;DHT22;30799;49.060;9.312;2022-12-24T09:37:18;19.80;63.60
45060;DHT22;30799;49.060;9.312;2022-12-24T09:39:45;19.80;62.80
45060;DHT22;30799;49.060;9.312;2022-12-24T09:45:02;19.80;62.70
45060;DHT22;30799;49.060;9.312;2022-12-24T09:47:38;19.80;62.70
45060;DHT22;30799;49.060;9.312;2022-12-24T09:50:23;19.80;62.70
45060;DHT22;30799;49.060;9.312;2022-12-24T09:52:52;19.70;62.70
45060;DHT22;30799;49.060;9.312;2022-12-24T09:55:26;19.80;62.80
45060;DHT22;30799;49.060;9.312;2022-12-24T09:57:54;19.70;62.70
45060;DHT22;30799;49.060;9.312;2022-12-24T10:00:34;19.80;62.80
45060;DHT22;30799;49.060;9.312;2022-12-24T10:03:12;19.70;62.70
45060;DHT22;30799;49.060;9.312;2022-12-24T10:05:56;19.80;62.80
45060;DHT22;30799;49.060;9.312;2022-12-24T10:08:49;19.80;62.70
45060;DHT22;30799;49.060;9.312;2022-12-24T10:11:42;19.80;62.70
45060;DHT22;30799;49.060;9.312;2022-12-24T10:28:00;19.80;62.70
45060;DHT22;30799;49.060;9.312;2022-12-24T10:30:28;19.70;62.60
45060;DHT22;30799;49.060;9.312;2022-12-24T10:32:55;19.80;62.60
45060;DHT22;30799;49.060;9.312;2022-12-24T10:35:25;19.80;62.60
45060;DHT22;30799;49.060;9.312;2022-12-24T10:37:54;19.80;62.50
45060;DHT22;30799;49.060;9.312;2022-12-24T10:40:43;19.70;62.40
45060;DHT22;30799;49.060;9.312;2022-12-24T10:43:22;19.70;62.40
45060;DHT22;30799;49.060;9.312;2022-12-24T10:45:55;19.80;62.50
45060;DHT22;30799;49.060;9.312;2022-12-24T10:48:44;19.80;62.50
45060;DHT22;30799;49.060;9.312;2022-12-24T10:51:28;19.70;62.40
45060;DHT22;30799;49.060;9.312;2022-12-24T10:54:05;19.70;62.40
45060;DHT22;30799;49.060;9.312;2022-12-24T10:56:46;19.70;62.30
45060;DHT22;30799;49.060;9.312;2022-12-24T11:02:00;19.70;62.40
45060;DHT22;30799;49.060;9.312;2022-12-24T11:04:31;19.70;62.40
45060;DHT22;30799;49.060;9.312;2022-12-24T11:06:59;19.70;62.40
45060;DHT22;30799;49.060;9.312;2022-12-24T11:09:32;19.70;62.30
45060;DHT22;30799;49.060;9.312;2022-12-24T11:12:01;19.70;62.30
45060;DHT22;30799;49.060;9.312;2022-12-24T11:14:36;19.70;62.30
45060;DHT22;30799;49.060;9.312;2022-12-24T11:17:04;19.70;62.30
45060;DHT22;30799;49.060;9.312;2022-12-24T11:19:33;19.70;62.30
45060;DHT22;30799;49.060;9.312;2022-12-24T11:22:06;19.70;62.20
45060;DHT22;30799;49.060;9.312;2022-12-24T11:24:35;19.70;62.20
45060;DHT22;30799;49.060;9.312;2022-12-24T11:29:50;19.70;62.10
45060;DHT22;30799;49.060;9.312;2022-12-24T11:32:20;19.70;62.20
45060;DHT22;30799;49.060;9.312;2022-12-24T11:34:47;19.70;62.10
45060;DHT22;30799;49.060;9.312;2022-12-24T11:37:22;19.70;62.20
45060;DHT22;30799;49.060;9.312;2022-12-24T11:39:52;19.70;62.10
45060;DHT22;30799;49.060;9.312;2022-12-24T11:42:28;19.70;62.20
45060;DHT22;30799;49.060;9.312;2022-12-24T11:44:59;19.70;62.20
45060;DHT22;30799;49.060;9.312;2022-12-24T11:47:38;19.70;62.10
45060;DHT22;30799;49.060;9.312;2022-12-24T11:50:30;19.70;62.10
45060;DHT22;30799;49.060;9.312;2022-12-24T11:55:49;19.70;62.10
45060;DHT22;30799;49.060;9.312;2022-12-24T11:58:29;19.70;62.10
45060;DHT22;30799;49.060;9.312;2022-12-24T12:01:08;19.70;62.10
45060;DHT22;30799;49.060;9.312;2022-12-24T12:03:46;19.70;62.10
45060;DHT22;30799;49.060;9.312;2022-12-24T12:08:58;19.70;62.10
45060;DHT22;30799;49.060;9.312;2022-12-24T12:11:27;19.70;62.10
45060;DHT22;30799;49.060;9.312;2022-12-24T12:13:57;19.70;62.10
45060;DHT22;30799;49.060;9.312;2022-12-24T12:16:44;19.70;62.10
45060;DHT22;30799;49.060;9.312;2022-12-24T12:19:44;19.70;62.00
45060;DHT22;30799;49.060;9.312;2022-12-24T12:22:37;19.70;62.00
45060;DHT22;30799;49.060;9.312;2022-12-24T12:27:55;19.70;62.00
45060;DHT22;30799;49.060;9.312;2022-12-24T12:30:24;19.70;62.10
45060;DHT22;30799;49.060;9.312;2022-12-24T12:35:39;19.70;62.00
45060;DHT22;30799;49.060;9.312;2022-12-24T12:38:18;19.70;62.00
45060;DHT22;30799;49.060;9.312;2022-12-24T12:49:30;19.70;62.00
45060;DHT22;30799;49.060;9.312;2022-12-24T12:54:54;19.70;62.00
45060;DHT22;30799;49.060;9.312;2022-12-24T12:57:25;19.70;62.00
45060;DHT22;30799;49.060;9.312;2022-12-24T13:05:35;19.70;62.00
45060;DHT22;30799;49.060;9.312;2022-12-24T13:08:27;19.70;62.00
45060;DHT22;30799;49.060;9.312;2022-12-24T13:21:45;19.60;61.90
45060;DHT22;30799;49.060;9.312;2022-12-24T13:24:20;19.70;62.00
45060;DHT22;30799;49.060;9.312;2022-12-24T13:27:17;19.60;61.90
45060;DHT22;30799;49.060;9.312;2022-12-24T13:35:25;19.60;61.80
45060;DHT22;30799;49.060;9.312;2022-12-24T13:47:04;19.70;61.80
45060;DHT22;30799;49.060;9.312;2022-12-24T13:49:43;19.70;61.80
45060;DHT22;30799;49.060;9.312;2022-12-24T13:54:41;19.70;61.80
45060;DHT22;30799;49.060;9.312;2022-12-24T14:00:42;19.70;61.80
45060;DHT22;30799;49.060;9.312;2022-12-24T14:08:13;19.70;61.80
45060;DHT22;30799;49.060;9.312;2022-12-24T14:10:57;19.60;61.80
45060;DHT22;30799;49.060;9.312;2022-12-24T14:18:49;19.70;61.80
45060;DHT22;30799;49.060;9.312;2022-12-24T14:21:27;19.70;61.80
45060;DHT22;30799;49.060;9.312;2022-12-24T14:23:57;19.70;62.10
45060;DHT22;30799;49.060;9.312;2022-12-24T14:26:32;19.60;61.80
45060;DHT22;30799;49.060;9.312;2022-12-24T14:29:06;19.70;61.80
45060;DHT22;30799;49.060;9.312;2022-12-24T14:31:33;19.70;61.80
45060;DHT22;30799;49.060;9.312;2022-12-24T14:34:12;19.70;61.90
45060;DHT22;30799;49.060;9.312;2022-12-24T14:36:42;19.70;61.80
45060;DHT22;30799;49.060;9.312;2022-12-24T14:39:22;19.70;61.90
45060;DHT22;30799;49.060;9.312;2022-12-24T14:42:01;19.70;61.80
45060;DHT22;30799;49.060;9.312;2022-12-24T14:47:58;19.60;61.80
45060;DHT22;30799;49.060;9.312;2022-12-24T14:53:25;19.70;61.80
45060;DHT22;30799;49.060;9.312;2022-12-24T14:55:53;19.60;61.70
45060;DHT22;30799;49.060;9.312;2022-12-24T14:58:37;19.60;61.70
45060;DHT22;30799;49.060;9.312;2022-12-24T15:01:23;19.70;61.80
45060;DHT22;30799;49.060;9.312;2022-12-24T15:06:38;19.60;61.80
45060;DHT22;30799;49.060;9.312;2022-12-24T15:09:12;19.60;61.80
45060;DHT22;30799;49.060;9.312;2022-12-24T15:11:46;19.70;61.80
45060;DHT22;30799;49.060;9.312;2022-12-24T15:14:14;19.60;61.70
45060;DHT22;30799;49.060;9.312;2022-12-24T15:16:48;19.70;61.80
45060;DHT22;30799;49.060;9.312;2022-12-24T15:19:35;19.60;61.70
45060;DHT22;30799;49.060;9.312;2022-12-24T15:22:08;19.60;62.50
45060;DHT22;30799;49.060;9.312;2022-12-24T15:24:43;19.60;61.70
45060;DHT22;30799;49.060;9.312;2022-12-24T15:27:23;19.60;61.70
45060;DHT22;30799;49.060;9.312;2022-12-24T15:29:53;19.60;61.70
45060;DHT22;30799;49.060;9.312;2022-12-24T15:32:21;19.70;61.80
45060;DHT22;30799;49.060;9.312;2022-12-24T15:34:51;19.60;61.70
45060;DHT22;30799;49.060;9.312;2022-12-24T15:40:04;19.60;61.70
45060;DHT22;30799;49.060;9.312;2022-12-24T15:42:33;19.60;61.80
45060;DHT22;30799;49.060;9.312;2022-12-24T15:47:35;19.60;61.70
45060;DHT22;30799;49.060;9.312;2022-12-24T15:52:42;19.60;61.70
45060;DHT22;30799;49.060;9.312;2022-12-24T15:55:26;19.60;61.70
45060;DHT22;30799;49.060;9.312;2022-12-24T15:57:54;19.60;61.70
45060;DHT22;30799;49.060;9.312;2022-12-24T16:00:22;19.60;61.70
45060;DHT22;30799;49.060;9.312;2022-12-24T16:02:50;19.60;61.70
45060;DHT22;30799;49.060;9.312;2022-12-24T16:08:21;19.60;61.70
45060;DHT22;30799;49.060;9.312;2022-12-24T16:11:05;19.60;61.70
45060;DHT22;30799;49.060;9.312;2022-12-24T16:13:37;19.60;61.70
45060;DHT22;30799;49.060;9.312;2022-12-24T16:16:11;19.60;61.70
45060;DHT22;30799;49.060;9.312;2022-12-24T16:21:39;19.60;61.70
45060;DHT22;30799;49.060;9.312;2022-12-24T16:26:36;19.60;61.70
45060;DHT22;30799;49.060;9.312;2022-12-24T16:29:03;19.60;61.60
45060;DHT22;30799;49.060;9.312;2022-12-24T16:31:36;19.60;61.60
45060;DHT22;30799;49.060;9.312;2022-12-24T16:34:04;19.60;61.60
45060;DHT22;30799;49.060;9.312;2022-12-24T16:36:31;19.50;61.50
45060;DHT22;30799;49.060;9.312;2022-12-24T16:38:57;19.60;61.60
45060;DHT22;30799;49.060;9.312;2022-12-24T16:41:43;19.60;61.60
45060;DHT22;30799;49.060;9.312;2022-12-24T16:44:28;19.60;61.60
45060;DHT22;30799;49.060;9.312;2022-12-24T16:46:55;19.60;61.60
45060;DHT22;30799;49.060;9.312;2022-12-24T16:49:24;19.60;61.60
45060;DHT22;30799;49.060;9.312;2022-12-24T16:51:50;19.60;61.60
45060;DHT22;30799;49.060;9.312;2022-12-24T16:54:17;19.50;61.50
45060;DHT22;30799;49.060;9.312;2022-12-24T16:56:44;19.60;61.60
45060;DHT22;30799;49.060;9.312;2022-12-24T16:59:20;19.60;61.60
45060;DHT22;30799;49.060;9.312;2022-12-24T17:01:47;19.60;61.60
45060;DHT22;30799;49.060;9.312;2022-12-24T17:04:15;19.50;61.50
45060;DHT22;30799;49.060;9.312;2022-12-24T17:06:43;19.50;61.50
45060;DHT22;30799;49.060;9.312;2022-12-24T17:09:10;19.60;61.60
45060;DHT22;30799;49.060;9.312;2022-12-24T17:11:37;19.50;61.60
45060;DHT22;30799;49.060;9.312;2022-12-24T17:14:04;19.50;61.50
45060;DHT22;30799;49.060;9.312;2022-12-24T17:16:34;19.50;61.50
45060;DHT22;30799;49.060;9.312;2022-12-24T17:19:03;19.50;61.50
45060;DHT22;30799;49.060;9.312;2022-12-24T17:21:30;19.60;61.60
45060;DHT22;30799;49.060;9.312;2022-12-24T17:23:57;19.50;61.50
45060;DHT22;30799;49.060;9.312;2022-12-24T17:26:24;19.50;61.50
45060;DHT22;30799;49.060;9.312;2022-12-24T17:28:54;19.50;61.50
45060;DHT22;30799;49.060;9.312;2022-12-24T17:31:22;19.50;61.50
45060;DHT22;30799;49.060;9.312;2022-12-24T17:33:50;19.50;61.50
45060;DHT22;30799;49.060;9.312;2022-12-24T17:36:18;19.50;61.50
45060;DHT22;30799;49.060;9.312;2022-12-24T17:38:45;19.50;61.50
45060;DHT22;30799;49.060;9.312;2022-12-24T17:41:14;19.50;61.40
45060;DHT22;30799;49.060;9.312;2022-12-24T17:43:41;19.50;61.50
45060;DHT22;30799;49.060;9.312;2022-12-24T17:46:11;19.50;61.40
45060;DHT22;30799;49.060;9.312;2022-12-24T17:48:38;19.50;61.40
45060;DHT22;30799;49.060;9.312;2022-12-24T17:51:13;19.50;61.50
45060;DHT22;30799;49.060;9.312;2022-12-24T17:53:41;19.50;61.40
45060;DHT22;30799;49.060;9.312;2022-12-24T17:56:10;19.50;61.50
45060;DHT22;30799;49.060;9.312;2022-12-24T17:58:41;19.50;61.50
45060;DHT22;30799;49.060;9.312;2022-12-24T18:01:11;19.50;61.40
45060;DHT22;30799;49.060;9.312;2022-12-24T18:03:38;19.50;61.50